sensor_id;sensor_type;location;lat;lon;timestamp;temperature;humidity
5940;DHT22;2995;-31.998;115.906;2022-11-11T00:01:56;14.80;99.90
5940;DHT22;2995;-31.998;115.906;2022-11-11T00:04:30;14.90;99.90
5940;DHT22;2995;-31.998;115.906;2022-11-11T00:07:02;15.20;99.90
5940;DHT22;2995;-31.998;115.906;2022-11-11T00:09:33;15.60;99.90
5940;DHT22;2995;-31.998;115.906;2022-11-11T00:12:06;16.00;99.90
5940;DHT22;2995;-31.998;115.906;2022-11-11T00:14:37;16.40;99.90
5940;DHT22;2995;-31.998;115.906;2022-11-11T00:17:12;16.80;99.90
5940;DHT22;2995;-31.998;115.906;2022-11-11T00:20:01;17.30;99.90
5940;DHT22;2995;-31.998;115.906;2022-11-11T00:22:48;18.10;99.90
5940;DHT22;2995;-31.998;115.906;2022-11-11T00:25:35;18.60;99.90
5940;DHT22;2995;-31.998;115.906;2022-11-11T00:28:06;18.00;99.90
5940;DHT22;2995;-31.998;115.906;2022-11-11T00:30:37;17.40;99.90
5940;DHT22;2995;-31.998;115.906;2022-11-11T00:33:09;17.20;99.90
5940;DHT22;2995;-31.998;115.906;2022-11-11T00:35:43;17.10;99.90
5940;DHT22;2995;-31.998;115.906;2022-11-11T00:38:21;17.20;99.90
5940;DHT22;2995;-31.998;115.906;2022-11-11T00:41:09;16.80;99.90
5940;DHT22;2995;-31.998;115.906;2022-11-11T00:43:40;16.90;99.90
5940;DHT22;2995;-31.998;115.906;2022-11-11T00:46:12;17.20;99.90
5940;DHT22;2995;-31.998;115.906;2022-11-11T00:49:00;17.50;99.90
5940;DHT22;2995;-31.998;115.906;2022-11-11T00:51:49;18.30;99.90
5940;DHT22;2995;-31.998;115.906;2022-11-11T00:54:20;18.50;99.90
5940;DHT22;2995;-31.998;115.906;2022-11-11T00:56:51;18.60;99.90
5940;DHT22;2995;-31.998;115.906;2022-11-11T00:59:23;18.40;99.90
5940;DHT22;2995;-31.998;115.906;2022-11-11T01:01:54;18.80;99.90
5940;DHT22;2995;-31.998;115.906;2022-11-11T01:04:26;18.40;99.90
5940;DHT22;2995;-31.998;115.906;2022-11-11T01:07:00;18.10;99.90
5940;DHT22;2995;-31.998;115.906;2022-11-11T01:09:31;17.70;99.90
5940;DHT22;2995;-31.998;115.906;2022-11-11T01:12:03;17.60;99.90
5940;DHT22;2995;-31.998;115.906;2022-11-11T01:14:34;18.00;99.90
5940;DHT22;2995;-31.998;115.906;2022-11-11T01:17:05;18.30;99.90
5940;DHT22;2995;-31.998;115.906;2022-11-11T01:19:37;18.80;99.90
5940;DHT22;2995;-31.998;115.906;2022-11-11T01:22:10;19.10;99.90
5940;DHT22;2995;-31.998;115.906;2022-11-11T01:24:41;19.70;99.90
5940;DHT22;2995;-31.998;115.906;2022-11-11T01:27:13;19.80;99.90
5940;DHT22;2995;-31.998;115.906;2022-11-11T01:29:44;19.70;99.90
5940;DHT22;2995;-31.998;115.906;2022-11-11T01:32:15;19.60;99.90
5940;DHT22;2995;-31.998;115.906;2022-11-11T01:34:47;19.50;99.90
5940;DHT22;2995;-31.998;115.906;2022-11-11T01:37:20;19.30;99.90
5940;DHT22;2995;-31.998;115.906;2022-11-11T01:39:51;19.60;99.90
5940;DHT22;2995;-31.998;115.906;2022-11-11T01:42:22;19.80;99.90
5940;DHT22;2995;-31.998;115.906;2022-11-11T01:44:56;19.10;99.90
5940;DHT22;2995;-31.998;115.906;2022-11-11T01:47:27;18.50;99.90
5940;DHT22;2995;-31.998;115.906;2022-11-11T01:50:21;18.50;99.90
5940;DHT22;2995;-31.998;115.906;2022-11-11T01:52:53;18.60;99.90
5940;DHT22;2995;-31.998;115.906;2022-11-11T01:55:24;19.00;99.90
5940;DHT22;2995;-31.998;115.906;2022-11-11T01:57:58;19.40;99.90
5940;DHT22;2995;-31.998;115.906;2022-11-11T02:00:31;19.60;99.90
5940;DHT22;2995;-31.998;115.906;2022-11-11T02:03:05;19.10;99.90
5940;DHT22;2995;-31.998;115.906;2022-11-11T02:05:38;19.20;99.90
5940;DHT22;2995;-31.998;115.906;2022-11-11T02:08:17;19.60;99.90
5940;DHT22;2995;-31.998;115.906;2022-11-11T02:11:01;19.40;99.90
5940;DHT22;2995;-31.998;115.906;2022-11-11T02:13:33;19.50;99.90
5940;DHT22;2995;-31.998;115.906;2022-11-11T02:16:23;19.50;99.90
5940;DHT22;2995;-31.998;115.906;2022-11-11T02:18:55;19.80;99.90
5940;DHT22;2995;-31.998;115.906;2022-11-11T02:21:31;20.10;99.90
5940;DHT22;2995;-31.998;115.906;2022-11-11T02:24:07;19.40;99.90
5940;DHT22;2995;-31.998;115.906;2022-11-11T02:26:40;19.40;99.90
5940;DHT22;2995;-31.998;115.906;2022-11-11T02:29:15;19.30;99.90
5940;DHT22;2995;-31.998;115.906;2022-11-11T02:31:46;19.20;99.90
5940;DHT22;2995;-31.998;115.906;2022-11-11T02:34:18;19.50;99.90
5940;DHT22;2995;-31.998;115.906;2022-11-11T02:36:50;19.40;99.90
5940;DHT22;2995;-31.998;115.906;2022-11-11T02:39:24;18.80;99.90
5940;DHT22;2995;-31.998;115.906;2022-11-11T02:41:57;19.20;99.90
5940;DHT22;2995;-31.998;115.906;2022-11-11T02:44:32;19.50;99.90
5940;DHT22;2995;-31.998;115.906;2022-11-11T02:47:03;19.70;99.90
5940;DHT22;2995;-31.998;115.906;2022-11-11T02:49:34;19.70;99.90
5940;DHT22;2995;-31.998;115.906;2022-11-11T02:52:06;19.90;99.90
5940;DHT22;2995;-31.998;115.906;2022-11-11T02:54:39;19.90;99.90
5940;DHT22;2995;-31.998;115.906;2022-11-11T02:57:11;20.00;99.90
5940;DHT22;2995;-31.998;115.906;2022-11-11T02:59:43;20.00;99.90
5940;DHT22;2995;-31.998;115.906;2022-11-11T03:02:14;19.80;99.90
5940;DHT22;2995;-31.998;115.906;2022-11-11T03:04:46;19.60;99.90
5940;DHT22;2995;-31.998;115.906;2022-11-11T03:07:17;19.70;99.90
5940;DHT22;2995;-31.998;115.906;2022-11-11T03:09:50;19.90;99.90
5940;DHT22;2995;-31.998;115.906;2022-11-11T03:12:21;20.10;99.90
5940;DHT22;2995;-31.998;115.906;2022-11-11T03:14:53;20.10;99.90
5940;DHT22;2995;-31.998;115.906;2022-11-11T03:17:25;20.50;99.90
5940;DHT22;2995;-31.998;115.906;2022-11-11T03:20:11;20.40;99.90
5940;DHT22;2995;-31.998;115.906;2022-11-11T03:23:02;20.10;99.90
5940;DHT22;2995;-31.998;115.906;2022-11-11T03:25:38;20.50;99.90
5940;DHT22;2995;-31.998;115.906;2022-11-11T03:28:11;20.70;99.90
5940;DHT22;2995;-31.998;115.906;2022-11-11T03:30:43;19.90;99.90
5940;DHT22;2995;-31.998;115.906;2022-11-11T03:33:15;19.90;99.90
5940;DHT22;2995;-31.998;115.906;2022-11-11T03:35:47;20.00;99.90
5940;DHT22;2995;-31.998;115.906;2022-11-11T03:38:19;20.20;99.90
5940;DHT22;2995;-31.998;115.906;2022-11-11T03:40:55;20.60;99.90
5940;DHT22;2995;-31.998;115.906;2022-11-11T03:43:29;20.70;99.90
5940;DHT22;2995;-31.998;115.906;2022-11-11T03:46:01;20.90;99.90
5940;DHT22;2995;-31.998;115.906;2022-11-11T03:48:33;21.00;99.90
5940;DHT22;2995;-31.998;115.906;2022-11-11T03:51:05;20.60;99.90
5940;DHT22;2995;-31.998;115.906;2022-11-11T03:53:36;21.10;99.90
5940;DHT22;2995;-31.998;115.906;2022-11-11T03:56:10;21.40;99.90
5940;DHT22;2995;-31.998;115.906;2022-11-11T03:58:41;21.50;99.90
5940;DHT22;2995;-31.998;115.906;2022-11-11T04:01:12;21.40;99.90
5940;DHT22;2995;-31.998;115.906;2022-11-11T04:04:03;21.50;99.90
5940;DHT22;2995;-31.998;115.906;2022-11-11T04:06:50;21.90;99.90
5940;DHT22;2995;-31.998;115.906;2022-11-11T04:09:37;21.80;99.90
5940;DHT22;2995;-31.998;115.906;2022-11-11T04:12:27;22.10;99.90
5940;DHT22;2995;-31.998;115.906;2022-11-11T04:14:58;21.40;99.90
5940;DHT22;2995;-31.998;115.906;2022-11-11T04:17:46;21.30;99.90
5940;DHT22;2995;-31.998;115.906;2022-11-11T04:20:17;21.30;99.90
5940;DHT22;2995;-31.998;115.906;2022-11-11T04:23:04;21.50;99.90
5940;DHT22;2995;-31.998;115.906;2022-11-11T04:25:35;21.70;99.90
5940;DHT22;2995;-31.998;115.906;2022-11-11T04:28:19;21.80;99.90
5940;DHT22;2995;-31.998;115.906;2022-11-11T04:31:06;21.70;99.90
5940;DHT22;2995;-31.998;115.906;2022-11-11T04:33:37;21.40;99.90
5940;DHT22;2995;-31.998;115.906;2022-11-11T04:36:09;21.20;99.90
5940;DHT22;2995;-31.998;115.906;2022-11-11T04:38:40;21.20;99.90
5940;DHT22;2995;-31.998;115.906;2022-11-11T04:41:27;20.80;99.90
5940;DHT22;2995;-31.998;115.906;2022-11-11T04:44:00;20.40;99.90
5940;DHT22;2995;-31.998;115.906;2022-11-11T04:46:47;20.70;99.90
5940;DHT22;2995;-31.998;115.906;2022-11-11T04:49:18;21.30;99.90
5940;DHT22;2995;-31.998;115.906;2022-11-11T04:51:49;21.50;99.90
5940;DHT22;2995;-31.998;115.906;2022-11-11T04:54:36;21.50;99.90
5940;DHT22;2995;-31.998;115.906;2022-11-11T04:57:28;21.90;99.90
5940;DHT22;2995;-31.998;115.906;2022-11-11T05:00:00;21.60;99.90
5940;DHT22;2995;-31.998;115.906;2022-11-11T05:02:32;21.20;99.90
5940;DHT22;2995;-31.998;115.906;2022-11-11T05:05:19;21.30;99.90
5940;DHT22;2995;-31.998;115.906;2022-11-11T05:07:50;21.50;99.90
5940;DHT22;2995;-31.998;115.906;2022-11-11T05:10:37;21.30;99.90
5940;DHT22;2995;-31.998;115.906;2022-11-11T05:13:08;21.10;99.90
5940;DHT22;2995;-31.998;115.906;2022-11-11T05:15:57;21.10;99.90
5940;DHT22;2995;-31.998;115.906;2022-11-11T05:18:44;20.80;99.90
5940;DHT22;2995;-31.998;115.906;2022-11-11T05:21:31;20.50;99.90
5940;DHT22;2995;-31.998;115.906;2022-11-11T05:24:02;20.20;99.90
5940;DHT22;2995;-31.998;115.906;2022-11-11T05:26:49;20.20;99.90
5940;DHT22;2995;-31.998;115.906;2022-11-11T05:29:21;20.40;99.90
5940;DHT22;2995;-31.998;115.906;2022-11-11T05:31:54;20.30;99.90
5940;DHT22;2995;-31.998;115.906;2022-11-11T05:34:26;20.60;99.90
5940;DHT22;2995;-31.998;115.906;2022-11-11T05:36:57;20.30;99.90
5940;DHT22;2995;-31.998;115.906;2022-11-11T05:39:29;20.00;99.90
5940;DHT22;2995;-31.998;115.906;2022-11-11T05:42:01;20.00;99.90
5940;DHT22;2995;-31.998;115.906;2022-11-11T05:44:33;20.30;99.90
5940;DHT22;2995;-31.998;115.906;2022-11-11T05:47:06;20.40;99.90
5940;DHT22;2995;-31.998;115.906;2022-11-11T05:49:37;20.30;99.90
5940;DHT22;2995;-31.998;115.906;2022-11-11T05:52:10;20.70;99.90
5940;DHT22;2995;-31.998;115.906;2022-11-11T05:54:43;20.80;99.90
5940;DHT22;2995;-31.998;115.906;2022-11-11T05:57:14;20.70;99.90
5940;DHT22;2995;-31.998;115.906;2022-11-11T05:59:46;20.60;99.90
5940;DHT22;2995;-31.998;115.906;2022-11-11T06:02:19;20.60;99.90
5940;DHT22;2995;-31.998;115.906;2022-11-11T06:04:50;20.40;99.90
5940;DHT22;2995;-31.998;115.906;2022-11-11T06:07:22;20.50;99.90
5940;DHT22;2995;-31.998;115.906;2022-11-11T06:09:53;20.70;99.90
5940;DHT22;2995;-31.998;115.906;2022-11-11T06:12:45;21.00;99.90
5940;DHT22;2995;-31.998;115.906;2022-11-11T06:15:37;21.00;99.90
5940;DHT22;2995;-31.998;115.906;2022-11-11T06:18:11;21.10;99.90
5940;DHT22;2995;-31.998;115.906;2022-11-11T06:20:43;21.20;99.90
5940;DHT22;2995;-31.998;115.906;2022-11-11T06:23:14;21.20;99.90
5940;DHT22;2995;-31.998;115.906;2022-11-11T06:25:45;21.10;99.90
5940;DHT22;2995;-31.998;115.906;2022-11-11T06:28:32;20.90;99.90
5940;DHT22;2995;-31.998;115.906;2022-11-11T06:31:04;20.90;99.90
5940;DHT22;2995;-31.998;115.906;2022-11-11T06:33:40;21.00;99.90
5940;DHT22;2995;-31.998;115.906;2022-11-11T06:36:12;21.10;99.90
5940;DHT22;2995;-31.998;115.906;2022-11-11T06:38:44;21.30;99.90
5940;DHT22;2995;-31.998;115.906;2022-11-11T06:41:16;21.20;99.90
5940;DHT22;2995;-31.998;115.906;2022-11-11T06:43:47;21.00;99.90
5940;DHT22;2995;-31.998;115.906;2022-11-11T06:46:22;20.90;99.90
5940;DHT22;2995;-31.998;115.906;2022-11-11T06:48:56;20.70;99.90
5940;DHT22;2995;-31.998;115.906;2022-11-11T06:51:28;20.90;99.90
5940;DHT22;2995;-31.998;115.906;2022-11-11T06:54:00;20.80;99.90
5940;DHT22;2995;-31.998;115.906;2022-11-11T06:56:32;20.90;99.90
5940;DHT22;2995;-31.998;115.906;2022-11-11T06:59:03;20.80;99.90
5940;DHT22;2995;-31.998;115.906;2022-11-11T07:01:35;21.00;99.90
5940;DHT22;2995;-31.998;115.906;2022-11-11T07:04:09;21.10;99.90
5940;DHT22;2995;-31.998;115.906;2022-11-11T07:06:40;20.90;99.90
5940;DHT22;2995;-31.998;115.906;2022-11-11T07:09:11;20.90;99.90
5940;DHT22;2995;-31.998;115.906;2022-11-11T07:11:44;21.00;99.90
5940;DHT22;2995;-31.998;115.906;2022-11-11T07:14:15;20.90;99.90
5940;DHT22;2995;-31.998;115.906;2022-11-11T07:16:46;20.90;99.90
5940;DHT22;2995;-31.998;115.906;2022-11-11T07:19:20;20.90;99.90
5940;DHT22;2995;-31.998;115.906;2022-11-11T07:21:52;21.10;99.90
5940;DHT22;2995;-31.998;115.906;2022-11-11T07:24:24;21.20;99.90
5940;DHT22;2995;-31.998;115.906;2022-11-11T07:26:55;21.00;99.90
5940;DHT22;2995;-31.998;115.906;2022-11-11T07:29:26;20.90;99.90
5940;DHT22;2995;-31.998;115.906;2022-11-11T07:31:58;20.70;99.90
5940;DHT22;2995;-31.998;115.906;2022-11-11T07:34:31;20.80;99.90
5940;DHT22;2995;-31.998;115.906;2022-11-11T07:37:03;20.70;99.90
5940;DHT22;2995;-31.998;115.906;2022-11-11T07:39:35;20.60;99.90
5940;DHT22;2995;-31.998;115.906;2022-11-11T07:42:06;20.60;99.90
5940;DHT22;2995;-31.998;115.906;2022-11-11T07:44:39;20.60;99.90
5940;DHT22;2995;-31.998;115.906;2022-11-11T07:47:10;20.80;99.90
5940;DHT22;2995;-31.998;115.906;2022-11-11T07:49:44;20.80;99.90
5940;DHT22;2995;-31.998;115.906;2022-11-11T07:52:16;20.90;99.90
5940;DHT22;2995;-31.998;115.906;2022-11-11T07:54:50;20.90;99.90
5940;DHT22;2995;-31.998;115.906;2022-11-11T07:57:22;20.70;99.90
5940;DHT22;2995;-31.998;115.906;2022-11-11T07:59:54;20.50;99.90
5940;DHT22;2995;-31.998;115.906;2022-11-11T08:02:25;20.50;99.90
5940;DHT22;2995;-31.998;115.906;2022-11-11T08:04:58;20.50;99.90
5940;DHT22;2995;-31.998;115.906;2022-11-11T08:07:29;20.40;99.90
5940;DHT22;2995;-31.998;115.906;2022-11-11T08:10:02;20.50;99.90
5940;DHT22;2995;-31.998;115.906;2022-11-11T08:12:33;20.60;99.90
5940;DHT22;2995;-31.998;115.906;2022-11-11T08:15:20;20.50;99.90
5940;DHT22;2995;-31.998;115.906;2022-11-11T08:17:52;20.40;99.90
5940;DHT22;2995;-31.998;115.906;2022-11-11T08:20:26;20.30;99.90
5940;DHT22;2995;-31.998;115.906;2022-11-11T08:22:58;20.20;99.90
5940;DHT22;2995;-31.998;115.906;2022-11-11T08:25:31;20.00;99.90
5940;DHT22;2995;-31.998;115.906;2022-11-11T08:28:04;20.10;99.90
5940;DHT22;2995;-31.998;115.906;2022-11-11T08:30:35;20.10;99.90
5940;DHT22;2995;-31.998;115.906;2022-11-11T08:33:06;20.10;99.90
5940;DHT22;2995;-31.998;115.906;2022-11-11T08:35:40;20.10;99.90
5940;DHT22;2995;-31.998;115.906;2022-11-11T08:38:11;19.90;99.90
5940;DHT22;2995;-31.998;115.906;2022-11-11T08:40:43;20.10;99.90
5940;DHT22;2995;-31.998;115.906;2022-11-11T08:43:14;20.20;99.90
5940;DHT22;2995;-31.998;115.906;2022-11-11T08:45:46;20.20;99.90
5940;DHT22;2995;-31.998;115.906;2022-11-11T08:48:17;20.10;99.90
5940;DHT22;2995;-31.998;115.906;2022-11-11T08:50:52;20.10;99.90
5940;DHT22;2995;-31.998;115.906;2022-11-11T08:53:24;20.10;99.90
5940;DHT22;2995;-31.998;115.906;2022-11-11T08:55:57;20.10;99.90
5940;DHT22;2995;-31.998;115.906;2022-11-11T08:58:31;20.10;99.90
5940;DHT22;2995;-31.998;115.906;2022-11-11T09:01:02;20.10;99.90
5940;DHT22;2995;-31.998;115.906;2022-11-11T09:03:34;19.70;99.90
5940;DHT22;2995;-31.998;115.906;2022-11-11T09:06:08;19.60;99.90
5940;DHT22;2995;-31.998;115.906;2022-11-11T09:08:42;19.50;99.90
5940;DHT22;2995;-31.998;115.906;2022-11-11T09:11:15;19.40;99.90
5940;DHT22;2995;-31.998;115.906;2022-11-11T09:13:47;19.40;99.90
5940;DHT22;2995;-31.998;115.906;2022-11-11T09:16:19;19.40;99.90
5940;DHT22;2995;-31.998;115.906;2022-11-11T09:18:51;19.40;99.90
5940;DHT22;2995;-31.998;115.906;2022-11-11T09:21:24;19.30;99.90
5940;DHT22;2995;-31.998;115.906;2022-11-11T09:23:56;19.40;99.90
5940;DHT22;2995;-31.998;115.906;2022-11-11T09:26:28;19.30;99.90
5940;DHT22;2995;-31.998;115.906;2022-11-11T09:29:00;19.20;99.90
5940;DHT22;2995;-31.998;115.906;2022-11-11T09:31:31;19.30;99.90
5940;DHT22;2995;-31.998;115.906;2022-11-11T09:34:02;19.20;99.90
5940;DHT22;2995;-31.998;115.906;2022-11-11T09:36:35;19.10;99.90
5940;DHT22;2995;-31.998;115.906;2022-11-11T09:39:07;18.90;99.90
5940;DHT22;2995;-31.998;115.906;2022-11-11T09:41:46;19.00;99.90
5940;DHT22;2995;-31.998;115.906;2022-11-11T09:44:33;18.90;99.90
5940;DHT22;2995;-31.998;115.906;2022-11-11T09:47:16;18.80;99.90
5940;DHT22;2995;-31.998;115.906;2022-11-11T09:49:59;18.90;99.90
5940;DHT22;2995;-31.998;115.906;2022-11-11T09:52:36;18.70;99.90
5940;DHT22;2995;-31.998;115.906;2022-11-11T09:55:14;18.60;99.90
5940;DHT22;2995;-31.998;115.906;2022-11-11T09:57:52;18.60;99.90
5940;DHT22;2995;-31.998;115.906;2022-11-11T10:00:28;18.60;99.90
5940;DHT22;2995;-31.998;115.906;2022-11-11T10:03:05;18.50;99.90
5940;DHT22;2995;-31.998;115.906;2022-11-11T10:05:43;18.50;99.90
5940;DHT22;2995;-31.998;115.906;2022-11-11T10:08:21;18.50;99.90
5940;DHT22;2995;-31.998;115.906;2022-11-11T10:10:57;18.40;99.90
5940;DHT22;2995;-31.998;115.906;2022-11-11T10:13:30;18.40;99.90
5940;DHT22;2995;-31.998;115.906;2022-11-11T10:16:05;18.30;99.90
5940;DHT22;2995;-31.998;115.906;2022-11-11T10:18:52;18.20;99.90
5940;DHT22;2995;-31.998;115.906;2022-11-11T10:21:36;18.20;99.90
5940;DHT22;2995;-31.998;115.906;2022-11-11T10:24:15;18.10;99.90
5940;DHT22;2995;-31.998;115.906;2022-11-11T10:26:48;18.00;99.90
5940;DHT22;2995;-31.998;115.906;2022-11-11T10:29:20;18.00;99.90
5940;DHT22;2995;-31.998;115.906;2022-11-11T10:31:56;17.90;99.90
5940;DHT22;2995;-31.998;115.906;2022-11-11T10:34:32;17.80;99.90
5940;DHT22;2995;-31.998;115.906;2022-11-11T10:37:16;17.80;99.90
5940;DHT22;2995;-31.998;115.906;2022-11-11T10:39:59;17.80;99.90
5940;DHT22;2995;-31.998;115.906;2022-11-11T10:42:32;17.70;99.90
5940;DHT22;2995;-31.998;115.906;2022-11-11T10:45:10;17.70;99.90
5940;DHT22;2995;-31.998;115.906;2022-11-11T10:47:46;17.60;99.90
5940;DHT22;2995;-31.998;115.906;2022-11-11T10:50:24;17.50;99.90
5940;DHT22;2995;-31.998;115.906;2022-11-11T10:53:05;17.40;99.90
5940;DHT22;2995;-31.998;115.906;2022-11-11T10:55:44;17.30;99.90
5940;DHT22;2995;-31.998;115.906;2022-11-11T10:58:20;17.30;99.90
5940;DHT22;2995;-31.998;115.906;2022-11-11T11:00:54;17.30;99.90
5940;DHT22;2995;-31.998;115.906;2022-11-11T11:03:31;17.30;99.90
5940;DHT22;2995;-31.998;115.906;2022-11-11T11:06:09;17.30;99.90
5940;DHT22;2995;-31.998;115.906;2022-11-11T11:08:44;17.20;99.90
5940;DHT22;2995;-31.998;115.906;2022-11-11T11:11:21;17.10;99.90
5940;DHT22;2995;-31.998;115.906;2022-11-11T11:13:56;17.10;99.90
5940;DHT22;2995;-31.998;115.906;2022-11-11T11:16:33;17.10;99.90
5940;DHT22;2995;-31.998;115.906;2022-11-11T11:19:16;17.10;99.90
5940;DHT22;2995;-31.998;115.906;2022-11-11T11:21:53;17.20;99.90
5940;DHT22;2995;-31.998;115.906;2022-11-11T11:24:25;17.10;99.90
5940;DHT22;2995;-31.998;115.906;2022-11-11T11:27:00;17.00;99.90
5940;DHT22;2995;-31.998;115.906;2022-11-11T11:29:38;16.90;99.90
5940;DHT22;2995;-31.998;115.906;2022-11-11T11:32:15;17.00;99.90
5940;DHT22;2995;-31.998;115.906;2022-11-11T11:34:48;16.90;99.90
5940;DHT22;2995;-31.998;115.906;2022-11-11T11:37:21;16.80;99.90
5940;DHT22;2995;-31.998;115.906;2022-11-11T11:40:00;16.70;99.90
5940;DHT22;2995;-31.998;115.906;2022-11-11T11:42:35;16.70;99.90
5940;DHT22;2995;-31.998;115.906;2022-11-11T11:45:22;16.80;99.90
5940;DHT22;2995;-31.998;115.906;2022-11-11T11:48:04;16.70;99.90
5940;DHT22;2995;-31.998;115.906;2022-11-11T11:50:41;16.80;99.90
5940;DHT22;2995;-31.998;115.906;2022-11-11T11:53:36;16.70;99.90
5940;DHT22;2995;-31.998;115.906;2022-11-11T11:56:20;16.70;99.90
5940;DHT22;2995;-31.998;115.906;2022-11-11T11:59:00;16.60;99.90
5940;DHT22;2995;-31.998;115.906;2022-11-11T12:01:41;16.50;99.90
5940;DHT22;2995;-31.998;115.906;2022-11-11T12:04:55;16.40;99.90
5940;DHT22;2995;-31.998;115.906;2022-11-11T12:10:30;16.40;99.90
5940;DHT22;2995;-31.998;115.906;2022-11-11T12:13:11;16.30;99.90
5940;DHT22;2995;-31.998;115.906;2022-11-11T12:15:55;16.30;99.90
5940;DHT22;2995;-31.998;115.906;2022-11-11T12:21:38;16.20;99.90
5940;DHT22;2995;-31.998;115.906;2022-11-11T12:24:20;16.10;99.90
5940;DHT22;2995;-31.998;115.906;2022-11-11T12:27:03;16.10;99.90
5940;DHT22;2995;-31.998;115.906;2022-11-11T12:29:46;15.90;99.90
5940;DHT22;2995;-31.998;115.906;2022-11-11T12:32:47;16.00;99.90
5940;DHT22;2995;-31.998;115.906;2022-11-11T12:35:38;15.80;99.90
5940;DHT22;2995;-31.998;115.906;2022-11-11T12:38:31;15.70;99.90
5940;DHT22;2995;-31.998;115.906;2022-11-11T12:41:10;15.70;99.90
5940;DHT22;2995;-31.998;115.906;2022-11-11T12:43:52;15.60;99.90
5940;DHT22;2995;-31.998;115.906;2022-11-11T12:46:34;15.60;99.90
5940;DHT22;2995;-31.998;115.906;2022-11-11T12:49:21;15.60;99.90
5940;DHT22;2995;-31.998;115.906;2022-11-11T12:51:59;15.60;99.90
5940;DHT22;2995;-31.998;115.906;2022-11-11T12:54:41;15.40;99.90
5940;DHT22;2995;-31.998;115.906;2022-11-11T12:57:21;15.40;99.90
5940;DHT22;2995;-31.998;115.906;2022-11-11T13:00:04;15.40;99.90
5940;DHT22;2995;-31.998;115.906;2022-11-11T13:03:16;15.30;99.90
5940;DHT22;2995;-31.998;115.906;2022-11-11T13:05:58;15.30;99.90
5940;DHT22;2995;-31.998;115.906;2022-11-11T13:11:50;15.20;99.90
5940;DHT22;2995;-31.998;115.906;2022-11-11T13:17:24;15.00;99.90
5940;DHT22;2995;-31.998;115.906;2022-11-11T13:19:57;14.90;99.90
5940;DHT22;2995;-31.998;115.906;2022-11-11T13:22:33;14.90;99.90
5940;DHT22;2995;-31.998;115.906;2022-11-11T13:25:06;14.90;99.90
5940;DHT22;2995;-31.998;115.906;2022-11-11T13:27:41;14.80;99.90
5940;DHT22;2995;-31.998;115.906;2022-11-11T13:30:35;14.80;99.90
5940;DHT22;2995;-31.998;115.906;2022-11-11T13:33:10;14.80;99.90
5940;DHT22;2995;-31.998;115.906;2022-11-11T13:35:44;14.70;99.90
5940;DHT22;2995;-31.998;115.906;2022-11-11T13:38:28;14.70;99.90
5940;DHT22;2995;-31.998;115.906;2022-11-11T13:41:02;14.60;99.90
5940;DHT22;2995;-31.998;115.906;2022-11-11T13:43:39;14.70;99.90
5940;DHT22;2995;-31.998;115.906;2022-11-11T13:46:31;14.40;99.90
5940;DHT22;2995;-31.998;115.906;2022-11-11T13:49:04;14.40;99.90
5940;DHT22;2995;-31.998;115.906;2022-11-11T13:51:39;14.30;99.90
5940;DHT22;2995;-31.998;115.906;2022-11-11T13:54:25;14.30;99.90
5940;DHT22;2995;-31.998;115.906;2022-11-11T13:57:04;14.20;99.90
5940;DHT22;2995;-31.998;115.906;2022-11-11T13:59:39;14.20;99.90
5940;DHT22;2995;-31.998;115.906;2022-11-11T14:02:31;14.30;99.90
5940;DHT22;2995;-31.998;115.906;2022-11-11T14:05:22;14.20;99.90
5940;DHT22;2995;-31.998;115.906;2022-11-11T14:07:55;14.00;99.90
5940;DHT22;2995;-31.998;115.906;2022-11-11T14:10:51;14.00;99.90
5940;DHT22;2995;-31.998;115.906;2022-11-11T14:13:40;14.10;99.90
5940;DHT22;2995;-31.998;115.906;2022-11-11T14:19:32;14.00;99.90
5940;DHT22;2995;-31.998;115.906;2022-11-11T14:22:04;14.00;99.90
5940;DHT22;2995;-31.998;115.906;2022-11-11T14:24:54;13.90;99.90
5940;DHT22;2995;-31.998;115.906;2022-11-11T14:27:29;13.80;99.90
5940;DHT22;2995;-31.998;115.906;2022-11-11T14:30:01;13.70;99.90
5940;DHT22;2995;-31.998;115.906;2022-11-11T14:32:49;13.80;99.90
5940;DHT22;2995;-31.998;115.906;2022-11-11T14:35:30;14.00;99.90
5940;DHT22;2995;-31.998;115.906;2022-11-11T14:38:21;13.60;99.90
5940;DHT22;2995;-31.998;115.906;2022-11-11T14:40:56;13.60;99.90
5940;DHT22;2995;-31.998;115.906;2022-11-11T14:43:39;13.80;99.90
5940;DHT22;2995;-31.998;115.906;2022-11-11T14:46:10;13.70;99.90
5940;DHT22;2995;-31.998;115.906;2022-11-11T14:48:55;13.50;99.90
5940;DHT22;2995;-31.998;115.906;2022-11-11T14:51:47;13.60;99.90
5940;DHT22;2995;-31.998;115.906;2022-11-11T14:54:42;13.50;99.90
5940;DHT22;2995;-31.998;115.906;2022-11-11T14:57:24;13.40;99.90
5940;DHT22;2995;-31.998;115.906;2022-11-11T15:00:00;13.30;99.90
5940;DHT22;2995;-31.998;115.906;2022-11-11T15:02:34;13.40;99.90
5940;DHT22;2995;-31.998;115.906;2022-11-11T15:05:12;13.30;99.90
5940;DHT22;2995;-31.998;115.906;2022-11-11T15:08:02;13.30;99.90
5940;DHT22;2995;-31.998;115.906;2022-11-11T15:11:02;13.30;99.90
5940;DHT22;2995;-31.998;115.906;2022-11-11T15:13:57;13.30;99.90
5940;DHT22;2995;-31.998;115.906;2022-11-11T15:16:48;13.20;99.90
5940;DHT22;2995;-31.998;115.906;2022-11-11T15:19:49;13.30;99.90
5940;DHT22;2995;-31.998;115.906;2022-11-11T15:22:44;13.30;99.90
5940;DHT22;2995;-31.998;115.906;2022-11-11T15:25:29;13.10;99.90
5940;DHT22;2995;-31.998;115.906;2022-11-11T15:28:12;13.00;99.90
5940;DHT22;2995;-31.998;115.906;2022-11-11T15:30:54;12.80;99.90
5940;DHT22;2995;-31.998;115.906;2022-11-11T15:33:42;12.90;99.90
5940;DHT22;2995;-31.998;115.906;2022-11-11T15:36:20;12.80;99.90
5940;DHT22;2995;-31.998;115.906;2022-11-11T15:38:56;12.90;99.90
5940;DHT22;2995;-31.998;115.906;2022-11-11T15:41:31;12.70;99.90
5940;DHT22;2995;-31.998;115.906;2022-11-11T15:44:09;12.70;99.90
5940;DHT22;2995;-31.998;115.906;2022-11-11T15:46:46;12.60;99.90
5940;DHT22;2995;-31.998;115.906;2022-11-11T15:49:43;12.70;99.90
5940;DHT22;2995;-31.998;115.906;2022-11-11T15:52:38;12.60;99.90
5940;DHT22;2995;-31.998;115.906;2022-11-11T15:55:20;12.60;99.90
5940;DHT22;2995;-31.998;115.906;2022-11-11T15:57:52;12.50;99.90
5940;DHT22;2995;-31.998;115.906;2022-11-11T16:00:29;12.50;99.90
5940;DHT22;2995;-31.998;115.906;2022-11-11T16:03:01;12.50;99.90
5940;DHT22;2995;-31.998;115.906;2022-11-11T16:05:35;12.40;99.90
5940;DHT22;2995;-31.998;115.906;2022-11-11T16:08:08;12.30;99.90
5940;DHT22;2995;-31.998;115.906;2022-11-11T16:10:42;12.40;99.90
5940;DHT22;2995;-31.998;115.906;2022-11-11T16:13:18;12.30;99.90
5940;DHT22;2995;-31.998;115.906;2022-11-11T16:15:52;12.20;99.90
5940;DHT22;2995;-31.998;115.906;2022-11-11T16:18:26;12.20;99.90
5940;DHT22;2995;-31.998;115.906;2022-11-11T16:21:05;12.20;99.90
5940;DHT22;2995;-31.998;115.906;2022-11-11T16:23:38;12.20;99.90
5940;DHT22;2995;-31.998;115.906;2022-11-11T16:26:11;12.20;99.90
5940;DHT22;2995;-31.998;115.906;2022-11-11T16:28:43;12.10;99.90
5940;DHT22;2995;-31.998;115.906;2022-11-11T16:31:37;12.10;99.90